sensor_id;sensor_type;location;lat;lon;timestamp;P1;durP1;ratioP1;P2;durP2;ratioP2
56457;SDS011;42360;42.918;12.366;2023-07-29T00:00:51;3.55;;;2.10;;
56457;SDS011;42360;42.918;12.366;2023-07-29T00:03:17;3.08;;;1.90;;
56457;SDS011;42360;42.918;12.366;2023-07-29T00:05:42;5.05;;;2.30;;
56457;SDS011;42360;42.918;12.366;2023-07-29T00:08:08;4.53;;;2.10;;
56457;SDS011;42360;42.918;12.366;2023-07-29T00:10:35;4.22;;;2.03;;
56457;SDS011;42360;42.918;12.366;2023-07-29T00:13:02;3.15;;;1.73;;
56457;SDS011;42360;42.918;12.366;2023-07-29T00:15:28;3.25;;;1.90;;
56457;SDS011;42360;42.918;12.366;2023-07-29T00:17:53;2.35;;;1.85;;
56457;SDS011;42360;42.918;12.366;2023-07-29T00:20:19;3.97;;;2.10;;
56457;SDS011;42360;42.918;12.366;2023-07-29T00:22:44;4.63;;;2.40;;
56457;SDS011;42360;42.918;12.366;2023-07-29T00:25:09;5.70;;;2.20;;
56457;SDS011;42360;42.918;12.366;2023-07-29T00:27:35;2.30;;;1.70;;
56457;SDS011;42360;42.918;12.366;2023-07-29T00:30:00;3.65;;;1.85;;
56457;SDS011;42360;42.918;12.366;2023-07-29T00:32:29;2.95;;;1.88;;
56457;SDS011;42360;42.918;12.366;2023-07-29T00:34:55;3.45;;;1.88;;
56457;SDS011;42360;42.918;12.366;2023-07-29T00:37:21;4.45;;;2.30;;
56457;SDS011;42360;42.918;12.366;2023-07-29T00:39:46;2.63;;;1.88;;
56457;SDS011;42360;42.918;12.366;2023-07-29T00:42:12;3.72;;;1.83;;
56457;SDS011;42360;42.918;12.366;2023-07-29T00:44:37;2.20;;;2.00;;
56457;SDS011;42360;42.918;12.366;2023-07-29T00:47:03;2.95;;;2.08;;
56457;SDS011;42360;42.918;12.366;2023-07-29T00:49:30;4.45;;;2.03;;
56457;SDS011;42360;42.918;12.366;2023-07-29T00:51:55;7.22;;;2.00;;
56457;SDS011;42360;42.918;12.366;2023-07-29T00:54:21;4.35;;;2.08;;
56457;SDS011;42360;42.918;12.366;2023-07-29T00:56:47;4.10;;;2.10;;
56457;SDS011;42360;42.918;12.366;2023-07-29T00:59:12;3.92;;;1.75;;
56457;SDS011;42360;42.918;12.366;2023-07-29T01:01:38;4.38;;;2.03;;
56457;SDS011;42360;42.918;12.366;2023-07-29T01:04:03;2.78;;;1.80;;
56457;SDS011;42360;42.918;12.366;2023-07-29T01:09:01;2.80;;;2.00;;
56457;SDS011;42360;42.918;12.366;2023-07-29T01:14:41;4.38;;;1.83;;
56457;SDS011;42360;42.918;12.366;2023-07-29T01:17:19;3.25;;;1.95;;
56457;SDS011;42360;42.918;12.366;2023-07-29T01:20:01;3.50;;;1.88;;
56457;SDS011;42360;42.918;12.366;2023-07-29T01:22:31;6.15;;;1.95;;
56457;SDS011;42360;42.918;12.366;2023-07-29T01:24:58;3.33;;;2.03;;
56457;SDS011;42360;42.918;12.366;2023-07-29T01:27:24;3.88;;;1.73;;
56457;SDS011;42360;42.918;12.366;2023-07-29T01:29:50;3.17;;;2.03;;
56457;SDS011;42360;42.918;12.366;2023-07-29T01:32:29;2.75;;;2.05;;
56457;SDS011;42360;42.918;12.366;2023-07-29T01:37:32;2.45;;;1.75;;
56457;SDS011;42360;42.918;12.366;2023-07-29T01:39:58;4.45;;;2.33;;
56457;SDS011;42360;42.918;12.366;2023-07-29T01:42:24;2.35;;;1.80;;
56457;SDS011;42360;42.918;12.366;2023-07-29T01:44:50;3.17;;;2.10;;
56457;SDS011;42360;42.918;12.366;2023-07-29T01:47:15;3.40;;;3.10;;
56457;SDS011;42360;42.918;12.366;2023-07-29T01:49:41;3.25;;;2.05;;
56457;SDS011;42360;42.918;12.366;2023-07-29T01:52:07;3.75;;;1.80;;
56457;SDS011;42360;42.918;12.366;2023-07-29T01:54:32;2.20;;;1.95;;
56457;SDS011;42360;42.918;12.366;2023-07-29T01:56:57;2.63;;;1.75;;
56457;SDS011;42360;42.918;12.366;2023-07-29T01:59:23;3.67;;;1.90;;
56457;SDS011;42360;42.918;12.366;2023-07-29T02:01:48;3.63;;;1.88;;
56457;SDS011;42360;42.918;12.366;2023-07-29T02:04:14;3.60;;;1.90;;
56457;SDS011;42360;42.918;12.366;2023-07-29T02:06:39;5.07;;;2.15;;
56457;SDS011;42360;42.918;12.366;2023-07-29T02:09:05;3.25;;;2.00;;
56457;SDS011;42360;42.918;12.366;2023-07-29T02:11:30;2.97;;;1.90;;
56457;SDS011;42360;42.918;12.366;2023-07-29T02:13:56;3.92;;;2.28;;
56457;SDS011;42360;42.918;12.366;2023-07-29T02:16:22;2.90;;;2.20;;
56457;SDS011;42360;42.918;12.366;2023-07-29T02:18:48;4.18;;;2.10;;
56457;SDS011;42360;42.918;12.366;2023-07-29T02:21:14;3.78;;;2.30;;
56457;SDS011;42360;42.918;12.366;2023-07-29T02:23:40;2.92;;;2.00;;
56457;SDS011;42360;42.918;12.366;2023-07-29T02:26:05;4.20;;;2.03;;
56457;SDS011;42360;42.918;12.366;2023-07-29T02:28:31;3.20;;;2.05;;
56457;SDS011;42360;42.918;12.366;2023-07-29T02:31:14;3.47;;;2.05;;
56457;SDS011;42360;42.918;12.366;2023-07-29T02:33:39;3.55;;;2.10;;
56457;SDS011;42360;42.918;12.366;2023-07-29T02:36:05;2.97;;;1.80;;
56457;SDS011;42360;42.918;12.366;2023-07-29T02:38:30;4.20;;;2.30;;
56457;SDS011;42360;42.918;12.366;2023-07-29T02:40:56;2.95;;;1.98;;
56457;SDS011;42360;42.918;12.366;2023-07-29T02:43:21;5.00;;;1.83;;
56457;SDS011;42360;42.918;12.366;2023-07-29T02:45:47;1.70;;;1.50;;
56457;SDS011;42360;42.918;12.366;2023-07-29T02:48:13;3.45;;;1.85;;
56457;SDS011;42360;42.918;12.366;2023-07-29T02:50:38;3.85;;;2.00;;
56457;SDS011;42360;42.918;12.366;2023-07-29T02:53:04;5.57;;;2.05;;
56457;SDS011;42360;42.918;12.366;2023-07-29T02:55:30;3.78;;;1.73;;
56457;SDS011;42360;42.918;12.366;2023-07-29T02:57:55;3.25;;;1.63;;
56457;SDS011;42360;42.918;12.366;2023-07-29T03:00:21;2.97;;;2.08;;
56457;SDS011;42360;42.918;12.366;2023-07-29T03:02:46;5.05;;;2.40;;
56457;SDS011;42360;42.918;12.366;2023-07-29T03:05:12;1.85;;;1.60;;
56457;SDS011;42360;42.918;12.366;2023-07-29T03:07:37;2.55;;;1.90;;
56457;SDS011;42360;42.918;12.366;2023-07-29T03:10:03;3.33;;;2.00;;
56457;SDS011;42360;42.918;12.366;2023-07-29T03:12:29;2.47;;;1.75;;
56457;SDS011;42360;42.918;12.366;2023-07-29T03:14:54;5.15;;;2.00;;
56457;SDS011;42360;42.918;12.366;2023-07-29T03:17:21;3.35;;;1.92;;
56457;SDS011;42360;42.918;12.366;2023-07-29T03:19:46;2.80;;;1.88;;
56457;SDS011;42360;42.918;12.366;2023-07-29T03:22:12;5.05;;;1.83;;
56457;SDS011;42360;42.918;12.366;2023-07-29T03:24:37;3.88;;;1.85;;
56457;SDS011;42360;42.918;12.366;2023-07-29T03:27:03;4.47;;;1.92;;
56457;SDS011;42360;42.918;12.366;2023-07-29T03:29:28;3.67;;;2.35;;
56457;SDS011;42360;42.918;12.366;2023-07-29T03:31:54;4.80;;;2.45;;
56457;SDS011;42360;42.918;12.366;2023-07-29T03:34:20;2.40;;;1.70;;
56457;SDS011;42360;42.918;12.366;2023-07-29T03:36:45;3.20;;;1.70;;
56457;SDS011;42360;42.918;12.366;2023-07-29T03:39:12;2.10;;;1.77;;
56457;SDS011;42360;42.918;12.366;2023-07-29T03:41:39;2.60;;;1.52;;
56457;SDS011;42360;42.918;12.366;2023-07-29T03:44:04;3.90;;;2.00;;
56457;SDS011;42360;42.918;12.366;2023-07-29T03:46:30;2.58;;;1.63;;
56457;SDS011;42360;42.918;12.366;2023-07-29T03:48:56;4.18;;;2.10;;
56457;SDS011;42360;42.918;12.366;2023-07-29T03:51:22;3.47;;;1.85;;
56457;SDS011;42360;42.918;12.366;2023-07-29T03:53:48;2.55;;;1.67;;
56457;SDS011;42360;42.918;12.366;2023-07-29T03:56:14;1.95;;;1.73;;
56457;SDS011;42360;42.918;12.366;2023-07-29T03:58:39;3.65;;;1.85;;
56457;SDS011;42360;42.918;12.366;2023-07-29T04:01:05;3.25;;;1.90;;
56457;SDS011;42360;42.918;12.366;2023-07-29T04:03:32;5.65;;;2.17;;
56457;SDS011;42360;42.918;12.366;2023-07-29T04:05:58;3.45;;;1.90;;
56457;SDS011;42360;42.918;12.366;2023-07-29T04:08:24;3.65;;;3.08;;
56457;SDS011;42360;42.918;12.366;2023-07-29T04:10:50;3.42;;;2.22;;
56457;SDS011;42360;42.918;12.366;2023-07-29T04:13:15;6.10;;;2.30;;
56457;SDS011;42360;42.918;12.366;2023-07-29T04:15:41;3.80;;;2.67;;
56457;SDS011;42360;42.918;12.366;2023-07-29T04:18:06;3.25;;;1.83;;
56457;SDS011;42360;42.918;12.366;2023-07-29T04:20:31;3.58;;;2.03;;
56457;SDS011;42360;42.918;12.366;2023-07-29T04:22:58;4.50;;;2.05;;
56457;SDS011;42360;42.918;12.366;2023-07-29T04:25:24;3.95;;;2.05;;
56457;SDS011;42360;42.918;12.366;2023-07-29T04:27:49;2.88;;;2.22;;
56457;SDS011;42360;42.918;12.366;2023-07-29T04:30:15;6.75;;;2.25;;
56457;SDS011;42360;42.918;12.366;2023-07-29T04:32:40;5.80;;;2.50;;
56457;SDS011;42360;42.918;12.366;2023-07-29T04:35:07;3.10;;;1.88;;
56457;SDS011;42360;42.918;12.366;2023-07-29T04:37:33;4.35;;;1.77;;
56457;SDS011;42360;42.918;12.366;2023-07-29T04:39:59;2.75;;;1.70;;
56457;SDS011;42360;42.918;12.366;2023-07-29T04:42:24;2.00;;;1.75;;
56457;SDS011;42360;42.918;12.366;2023-07-29T04:44:49;3.22;;;1.88;;
56457;SDS011;42360;42.918;12.366;2023-07-29T04:47:15;3.55;;;2.67;;
56457;SDS011;42360;42.918;12.366;2023-07-29T04:49:40;4.75;;;2.17;;
56457;SDS011;42360;42.918;12.366;2023-07-29T04:52:06;3.15;;;2.10;;
56457;SDS011;42360;42.918;12.366;2023-07-29T04:54:32;3.05;;;2.45;;
56457;SDS011;42360;42.918;12.366;2023-07-29T04:56:57;4.15;;;2.63;;
56457;SDS011;42360;42.918;12.366;2023-07-29T04:59:23;4.53;;;2.47;;
56457;SDS011;42360;42.918;12.366;2023-07-29T05:01:48;3.42;;;2.30;;
56457;SDS011;42360;42.918;12.366;2023-07-29T05:04:14;2.42;;;2.20;;
56457;SDS011;42360;42.918;12.366;2023-07-29T05:06:40;5.00;;;2.00;;
56457;SDS011;42360;42.918;12.366;2023-07-29T05:09:12;7.82;;;2.63;;
56457;SDS011;42360;42.918;12.366;2023-07-29T05:11:41;4.95;;;2.53;;
56457;SDS011;42360;42.918;12.366;2023-07-29T05:14:08;3.97;;;2.20;;
56457;SDS011;42360;42.918;12.366;2023-07-29T05:16:34;5.13;;;2.20;;
56457;SDS011;42360;42.918;12.366;2023-07-29T05:19:00;3.75;;;2.03;;
56457;SDS011;42360;42.918;12.366;2023-07-29T05:21:25;4.00;;;2.28;;
56457;SDS011;42360;42.918;12.366;2023-07-29T05:23:51;4.10;;;2.10;;
56457;SDS011;42360;42.918;12.366;2023-07-29T05:26:16;5.10;;;2.33;;
56457;SDS011;42360;42.918;12.366;2023-07-29T05:28:42;4.55;;;2.42;;
56457;SDS011;42360;42.918;12.366;2023-07-29T05:31:07;3.50;;;2.40;;
56457;SDS011;42360;42.918;12.366;2023-07-29T05:33:32;6.70;;;3.47;;
56457;SDS011;42360;42.918;12.366;2023-07-29T05:35:58;4.25;;;2.67;;
56457;SDS011;42360;42.918;12.366;2023-07-29T05:38:23;4.65;;;2.80;;
56457;SDS011;42360;42.918;12.366;2023-07-29T05:40:49;5.30;;;3.13;;
56457;SDS011;42360;42.918;12.366;2023-07-29T05:43:14;5.25;;;3.40;;
56457;SDS011;42360;42.918;12.366;2023-07-29T05:45:40;5.78;;;3.35;;
56457;SDS011;42360;42.918;12.366;2023-07-29T05:48:05;7.00;;;3.83;;
56457;SDS011;42360;42.918;12.366;2023-07-29T05:50:31;4.95;;;3.08;;
56457;SDS011;42360;42.918;12.366;2023-07-29T05:52:56;5.32;;;3.42;;
56457;SDS011;42360;42.918;12.366;2023-07-29T05:55:22;4.88;;;3.47;;
56457;SDS011;42360;42.918;12.366;2023-07-29T05:57:47;7.30;;;3.15;;
56457;SDS011;42360;42.918;12.366;2023-07-29T06:00:13;5.45;;;3.78;;
56457;SDS011;42360;42.918;12.366;2023-07-29T06:02:38;5.63;;;4.22;;
56457;SDS011;42360;42.918;12.366;2023-07-29T06:05:06;8.38;;;4.45;;
56457;SDS011;42360;42.918;12.366;2023-07-29T06:07:32;10.07;;;4.18;;
56457;SDS011;42360;42.918;12.366;2023-07-29T06:09:59;5.63;;;4.07;;
56457;SDS011;42360;42.918;12.366;2023-07-29T06:12:25;8.05;;;4.18;;
56457;SDS011;42360;42.918;12.366;2023-07-29T06:14:51;9.60;;;4.55;;
56457;SDS011;42360;42.918;12.366;2023-07-29T06:17:16;7.25;;;4.30;;
56457;SDS011;42360;42.918;12.366;2023-07-29T06:19:42;4.88;;;3.65;;
56457;SDS011;42360;42.918;12.366;2023-07-29T06:22:07;5.90;;;3.45;;
56457;SDS011;42360;42.918;12.366;2023-07-29T06:24:33;6.35;;;3.35;;
56457;SDS011;42360;42.918;12.366;2023-07-29T06:26:58;5.50;;;3.20;;
56457;SDS011;42360;42.918;12.366;2023-07-29T06:29:24;5.70;;;2.92;;
56457;SDS011;42360;42.918;12.366;2023-07-29T06:31:49;3.50;;;2.45;;
56457;SDS011;42360;42.918;12.366;2023-07-29T06:34:16;6.00;;;3.50;;
56457;SDS011;42360;42.918;12.366;2023-07-29T06:36:42;8.88;;;3.50;;
56457;SDS011;42360;42.918;12.366;2023-07-29T06:39:08;6.68;;;2.88;;
56457;SDS011;42360;42.918;12.366;2023-07-29T06:41:34;8.45;;;3.53;;
56457;SDS011;42360;42.918;12.366;2023-07-29T06:43:59;5.72;;;2.72;;
56457;SDS011;42360;42.918;12.366;2023-07-29T06:46:25;4.47;;;3.10;;
56457;SDS011;42360;42.918;12.366;2023-07-29T06:48:50;5.32;;;2.85;;
56457;SDS011;42360;42.918;12.366;2023-07-29T06:51:16;4.72;;;2.63;;
56457;SDS011;42360;42.918;12.366;2023-07-29T06:53:41;3.45;;;3.00;;
56457;SDS011;42360;42.918;12.366;2023-07-29T06:56:07;4.80;;;3.30;;
56457;SDS011;42360;42.918;12.366;2023-07-29T06:58:32;7.45;;;3.40;;
56457;SDS011;42360;42.918;12.366;2023-07-29T07:00:58;4.05;;;2.80;;
56457;SDS011;42360;42.918;12.366;2023-07-29T07:03:23;5.80;;;2.70;;
56457;SDS011;42360;42.918;12.366;2023-07-29T07:05:49;4.60;;;2.88;;
56457;SDS011;42360;42.918;12.366;2023-07-29T07:08:15;6.53;;;3.40;;
56457;SDS011;42360;42.918;12.366;2023-07-29T07:10:40;5.63;;;2.55;;
56457;SDS011;42360;42.918;12.366;2023-07-29T07:13:06;3.03;;;2.47;;
56457;SDS011;42360;42.918;12.366;2023-07-29T07:15:31;4.05;;;2.28;;
56457;SDS011;42360;42.918;12.366;2023-07-29T07:17:57;3.60;;;2.10;;
56457;SDS011;42360;42.918;12.366;2023-07-29T07:20:22;5.75;;;2.72;;
56457;SDS011;42360;42.918;12.366;2023-07-29T07:22:48;4.80;;;2.35;;
56457;SDS011;42360;42.918;12.366;2023-07-29T07:25:13;5.35;;;2.15;;
56457;SDS011;42360;42.918;12.366;2023-07-29T07:27:39;5.10;;;2.40;;
56457;SDS011;42360;42.918;12.366;2023-07-29T07:30:04;4.53;;;2.10;;
56457;SDS011;42360;42.918;12.366;2023-07-29T07:32:30;4.68;;;2.50;;
56457;SDS011;42360;42.918;12.366;2023-07-29T07:34:56;4.35;;;2.20;;
56457;SDS011;42360;42.918;12.366;2023-07-29T07:37:21;4.88;;;2.10;;
56457;SDS011;42360;42.918;12.366;2023-07-29T07:39:47;5.70;;;2.05;;
56457;SDS011;42360;42.918;12.366;2023-07-29T07:42:12;2.03;;;1.83;;
56457;SDS011;42360;42.918;12.366;2023-07-29T07:44:38;4.47;;;2.25;;
56457;SDS011;42360;42.918;12.366;2023-07-29T07:47:03;4.45;;;1.88;;
56457;SDS011;42360;42.918;12.366;2023-07-29T07:49:29;4.03;;;2.20;;
56457;SDS011;42360;42.918;12.366;2023-07-29T07:51:54;4.38;;;2.30;;
56457;SDS011;42360;42.918;12.366;2023-07-29T07:54:20;4.53;;;2.50;;
56457;SDS011;42360;42.918;12.366;2023-07-29T07:56:45;5.95;;;2.33;;
56457;SDS011;42360;42.918;12.366;2023-07-29T07:59:14;4.45;;;2.30;;
56457;SDS011;42360;42.918;12.366;2023-07-29T08:01:39;3.55;;;2.75;;
56457;SDS011;42360;42.918;12.366;2023-07-29T08:04:05;3.95;;;2.28;;
56457;SDS011;42360;42.918;12.366;2023-07-29T08:06:31;8.15;;;2.25;;
56457;SDS011;42360;42.918;12.366;2023-07-29T08:08:57;5.80;;;3.13;;
56457;SDS011;42360;42.918;12.366;2023-07-29T08:11:24;3.00;;;1.98;;
56457;SDS011;42360;42.918;12.366;2023-07-29T08:13:50;3.53;;;1.98;;
56457;SDS011;42360;42.918;12.366;2023-07-29T08:16:16;3.50;;;2.20;;
56457;SDS011;42360;42.918;12.366;2023-07-29T08:18:41;2.90;;;2.22;;
56457;SDS011;42360;42.918;12.366;2023-07-29T08:21:07;3.83;;;2.05;;
56457;SDS011;42360;42.918;12.366;2023-07-29T08:23:33;3.47;;;1.70;;
56457;SDS011;42360;42.918;12.366;2023-07-29T08:26:00;3.60;;;2.00;;
56457;SDS011;42360;42.918;12.366;2023-07-29T08:28:28;4.93;;;2.03;;
56457;SDS011;42360;42.918;12.366;2023-07-29T08:30:55;6.57;;;2.83;;
56457;SDS011;42360;42.918;12.366;2023-07-29T08:33:21;2.88;;;1.60;;
56457;SDS011;42360;42.918;12.366;2023-07-29T08:35:46;3.67;;;2.05;;
56457;SDS011;42360;42.918;12.366;2023-07-29T08:38:11;2.80;;;1.65;;
56457;SDS011;42360;42.918;12.366;2023-07-29T08:40:37;4.80;;;2.00;;
56457;SDS011;42360;42.918;12.366;2023-07-29T08:43:10;3.13;;;2.08;;
56457;SDS011;42360;42.918;12.366;2023-07-29T08:45:37;3.72;;;1.80;;
56457;SDS011;42360;42.918;12.366;2023-07-29T08:48:06;2.10;;;1.73;;
56457;SDS011;42360;42.918;12.366;2023-07-29T08:50:33;2.60;;;2.20;;
56457;SDS011;42360;42.918;12.366;2023-07-29T08:53:01;3.58;;;2.00;;
56457;SDS011;42360;42.918;12.366;2023-07-29T08:55:31;5.32;;;1.80;;
56457;SDS011;42360;42.918;12.366;2023-07-29T08:57:58;3.05;;;1.70;;
56457;SDS011;42360;42.918;12.366;2023-07-29T09:00:23;6.95;;;2.15;;
56457;SDS011;42360;42.918;12.366;2023-07-29T09:02:50;3.33;;;1.67;;
56457;SDS011;42360;42.918;12.366;2023-07-29T09:05:16;3.63;;;1.70;;
56457;SDS011;42360;42.918;12.366;2023-07-29T09:07:41;3.25;;;1.80;;
56457;SDS011;42360;42.918;12.366;2023-07-29T09:10:11;3.72;;;2.10;;
56457;SDS011;42360;42.918;12.366;2023-07-29T09:15:03;4.25;;;2.15;;
56457;SDS011;42360;42.918;12.366;2023-07-29T09:17:33;2.88;;;1.60;;
56457;SDS011;42360;42.918;12.366;2023-07-29T09:19:58;3.58;;;1.40;;
56457;SDS011;42360;42.918;12.366;2023-07-29T09:22:24;4.47;;;2.13;;
56457;SDS011;42360;42.918;12.366;2023-07-29T09:24:52;4.18;;;1.70;;
56457;SDS011;42360;42.918;12.366;2023-07-29T09:27:27;2.58;;;1.70;;
56457;SDS011;42360;42.918;12.366;2023-07-29T09:29:53;3.85;;;1.80;;
56457;SDS011;42360;42.918;12.366;2023-07-29T09:32:20;2.80;;;1.25;;
56457;SDS011;42360;42.918;12.366;2023-07-29T09:34:46;2.30;;;1.48;;
56457;SDS011;42360;42.918;12.366;2023-07-29T09:37:22;4.43;;;1.67;;
56457;SDS011;42360;42.918;12.366;2023-07-29T09:39:49;4.15;;;1.80;;
56457;SDS011;42360;42.918;12.366;2023-07-29T09:42:18;5.30;;;2.45;;
56457;SDS011;42360;42.918;12.366;2023-07-29T09:44:45;2.78;;;1.85;;
56457;SDS011;42360;42.918;12.366;2023-07-29T09:47:18;4.25;;;1.63;;
56457;SDS011;42360;42.918;12.366;2023-07-29T09:49:51;4.00;;;1.63;;
56457;SDS011;42360;42.918;12.366;2023-07-29T09:52:17;3.05;;;1.83;;
56457;SDS011;42360;42.918;12.366;2023-07-29T09:54:47;3.20;;;1.50;;
56457;SDS011;42360;42.918;12.366;2023-07-29T09:57:16;2.53;;;1.80;;
56457;SDS011;42360;42.918;12.366;2023-07-29T09:59:43;3.50;;;1.90;;
56457;SDS011;42360;42.918;12.366;2023-07-29T10:02:18;3.67;;;1.83;;
56457;SDS011;42360;42.918;12.366;2023-07-29T10:04:46;2.45;;;1.70;;
56457;SDS011;42360;42.918;12.366;2023-07-29T10:07:12;4.25;;;1.85;;
56457;SDS011;42360;42.918;12.366;2023-07-29T10:09:38;4.20;;;2.00;;
56457;SDS011;42360;42.918;12.366;2023-07-29T10:12:05;2.35;;;1.85;;
56457;SDS011;42360;42.918;12.366;2023-07-29T10:14:31;5.07;;;1.88;;
56457;SDS011;42360;42.918;12.366;2023-07-29T10:16:57;4.30;;;2.03;;
56457;SDS011;42360;42.918;12.366;2023-07-29T10:19:24;2.72;;;2.00;;
56457;SDS011;42360;42.918;12.366;2023-07-29T10:21:50;5.35;;;2.30;;
56457;SDS011;42360;42.918;12.366;2023-07-29T10:24:18;4.28;;;1.80;;
56457;SDS011;42360;42.918;12.366;2023-07-29T10:26:46;2.75;;;2.00;;
56457;SDS011;42360;42.918;12.366;2023-07-29T10:29:13;3.63;;;2.63;;
56457;SDS011;42360;42.918;12.366;2023-07-29T10:31:39;2.10;;;1.42;;
56457;SDS011;42360;42.918;12.366;2023-07-29T10:34:06;2.03;;;1.58;;
56457;SDS011;42360;42.918;12.366;2023-07-29T10:36:31;2.83;;;1.80;;
56457;SDS011;42360;42.918;12.366;2023-07-29T10:38:57;2.97;;;2.40;;
56457;SDS011;42360;42.918;12.366;2023-07-29T10:41:23;2.97;;;1.85;;
56457;SDS011;42360;42.918;12.366;2023-07-29T10:43:48;2.35;;;1.80;;
56457;SDS011;42360;42.918;12.366;2023-07-29T10:48:43;3.45;;;1.70;;
56457;SDS011;42360;42.918;12.366;2023-07-29T10:51:27;5.82;;;1.95;;
56457;SDS011;42360;42.918;12.366;2023-07-29T10:53:55;5.25;;;1.90;;
56457;SDS011;42360;42.918;12.366;2023-07-29T10:58:55;3.85;;;1.92;;
56457;SDS011;42360;42.918;12.366;2023-07-29T11:01:31;7.22;;;2.20;;
56457;SDS011;42360;42.918;12.366;2023-07-29T11:09:40;3.92;;;2.13;;
56457;SDS011;42360;42.918;12.366;2023-07-29T11:17:37;3.47;;;2.15;;
56457;SDS011;42360;42.918;12.366;2023-07-29T11:20:04;5.75;;;2.22;;
56457;SDS011;42360;42.918;12.366;2023-07-29T11:22:32;3.90;;;2.15;;
56457;SDS011;42360;42.918;12.366;2023-07-29T11:24:58;3.20;;;2.20;;
56457;SDS011;42360;42.918;12.366;2023-07-29T11:27:23;4.65;;;2.10;;
56457;SDS011;42360;42.918;12.366;2023-07-29T11:29:49;2.58;;;2.05;;
56457;SDS011;42360;42.918;12.366;2023-07-29T11:32:15;3.35;;;2.20;;
56457;SDS011;42360;42.918;12.366;2023-07-29T11:34:41;2.92;;;1.67;;
56457;SDS011;42360;42.918;12.366;2023-07-29T11:37:08;3.22;;;2.00;;
56457;SDS011;42360;42.918;12.366;2023-07-29T11:39:41;3.95;;;2.35;;
56457;SDS011;42360;42.918;12.366;2023-07-29T11:42:10;5.68;;;2.35;;
56457;SDS011;42360;42.918;12.366;2023-07-29T11:44:37;2.90;;;1.87;;
56457;SDS011;42360;42.918;12.366;2023-07-29T11:47:06;3.75;;;2.13;;
56457;SDS011;42360;42.918;12.366;2023-07-29T11:49:33;5.17;;;2.10;;
56457;SDS011;42360;42.918;12.366;2023-07-29T11:52:03;3.22;;;1.85;;
56457;SDS011;42360;42.918;12.366;2023-07-29T11:54:29;3.70;;;1.90;;
56457;SDS011;42360;42.918;12.366;2023-07-29T11:56:55;6.05;;;2.53;;
56457;SDS011;42360;42.918;12.366;2023-07-29T11:59:20;8.73;;;2.80;;
56457;SDS011;42360;42.918;12.366;2023-07-29T12:01:46;2.92;;;1.98;;
56457;SDS011;42360;42.918;12.366;2023-07-29T12:04:12;3.40;;;2.10;;
56457;SDS011;42360;42.918;12.366;2023-07-29T12:06:38;4.03;;;2.42;;
56457;SDS011;42360;42.918;12.366;2023-07-29T12:09:04;3.17;;;2.65;;
56457;SDS011;42360;42.918;12.366;2023-07-29T12:11:30;2.35;;;1.95;;
56457;SDS011;42360;42.918;12.366;2023-07-29T12:13:55;4.07;;;2.38;;
56457;SDS011;42360;42.918;12.366;2023-07-29T12:16:21;4.05;;;2.20;;
56457;SDS011;42360;42.918;12.366;2023-07-29T12:18:46;3.42;;;2.25;;
56457;SDS011;42360;42.918;12.366;2023-07-29T12:21:14;4.07;;;2.22;;
56457;SDS011;42360;42.918;12.366;2023-07-29T12:23:39;4.47;;;2.40;;
56457;SDS011;42360;42.918;12.366;2023-07-29T12:26:05;4.55;;;2.08;;
56457;SDS011;42360;42.918;12.366;2023-07-29T12:28:30;4.93;;;2.20;;
56457;SDS011;42360;42.918;12.366;2023-07-29T12:30:56;2.53;;;2.30;;
56457;SDS011;42360;42.918;12.366;2023-07-29T12:33:32;4.72;;;2.20;;
56457;SDS011;42360;42.918;12.366;2023-07-29T12:35:59;3.13;;;2.00;;
56457;SDS011;42360;42.918;12.366;2023-07-29T12:38:28;3.08;;;2.15;;
56457;SDS011;42360;42.918;12.366;2023-07-29T12:40:53;4.75;;;2.33;;
56457;SDS011;42360;42.918;12.366;2023-07-29T12:43:19;3.42;;;2.00;;
56457;SDS011;42360;42.918;12.366;2023-07-29T12:45:45;2.83;;;2.10;;
56457;SDS011;42360;42.918;12.366;2023-07-29T12:48:11;3.13;;;2.20;;
56457;SDS011;42360;42.918;12.366;2023-07-29T12:50:37;3.90;;;2.30;;
56457;SDS011;42360;42.918;12.366;2023-07-29T12:53:04;4.15;;;2.30;;
56457;SDS011;42360;42.918;12.366;2023-07-29T12:55:30;5.32;;;2.05;;
56457;SDS011;42360;42.918;12.366;2023-07-29T12:57:55;4.50;;;2.40;;
56457;SDS011;42360;42.918;12.366;2023-07-29T13:00:21;3.40;;;2.20;;
56457;SDS011;42360;42.918;12.366;2023-07-29T13:02:46;2.33;;;1.83;;
56457;SDS011;42360;42.918;12.366;2023-07-29T13:05:12;2.92;;;2.20;;
56457;SDS011;42360;42.918;12.366;2023-07-29T13:07:38;5.00;;;2.10;;
56457;SDS011;42360;42.918;12.366;2023-07-29T13:10:04;4.20;;;2.05;;
56457;SDS011;42360;42.918;12.366;2023-07-29T13:12:30;3.28;;;2.28;;
56457;SDS011;42360;42.918;12.366;2023-07-29T13:14:55;3.28;;;2.28;;
56457;SDS011;42360;42.918;12.366;2023-07-29T13:17:21;3.53;;;2.30;;
56457;SDS011;42360;42.918;12.366;2023-07-29T13:19:47;3.78;;;2.22;;
56457;SDS011;42360;42.918;12.366;2023-07-29T13:22:13;4.60;;;2.15;;
56457;SDS011;42360;42.918;12.366;2023-07-29T13:24:38;3.80;;;2.35;;
56457;SDS011;42360;42.918;12.366;2023-07-29T13:27:04;3.97;;;2.00;;
56457;SDS011;42360;42.918;12.366;2023-07-29T13:29:29;5.00;;;2.78;;
56457;SDS011;42360;42.918;12.366;2023-07-29T13:31:55;3.80;;;2.53;;
56457;SDS011;42360;42.918;12.366;2023-07-29T13:34:20;3.53;;;2.33;;
56457;SDS011;42360;42.918;12.366;2023-07-29T13:36:46;3.10;;;2.53;;
56457;SDS011;42360;42.918;12.366;2023-07-29T13:39:12;3.10;;;2.13;;
56457;SDS011;42360;42.918;12.366;2023-07-29T13:41:37;3.40;;;2.40;;
56457;SDS011;42360;42.918;12.366;2023-07-29T13:44:03;2.53;;;2.20;;
56457;SDS011;42360;42.918;12.366;2023-07-29T13:46:28;4.00;;;2.25;;
56457;SDS011;42360;42.918;12.366;2023-07-29T13:48:54;4.80;;;2.45;;
56457;SDS011;42360;42.918;12.366;2023-07-29T13:51:20;4.00;;;2.42;;
56457;SDS011;42360;42.918;12.366;2023-07-29T13:53:45;2.58;;;2.35;;
56457;SDS011;42360;42.918;12.366;2023-07-29T13:56:11;2.95;;;2.60;;
56457;SDS011;42360;42.918;12.366;2023-07-29T13:58:36;3.05;;;2.22;;
56457;SDS011;42360;42.918;12.366;2023-07-29T14:01:01;3.00;;;2.60;;
56457;SDS011;42360;42.918;12.366;2023-07-29T14:03:27;4.15;;;1.98;;
56457;SDS011;42360;42.918;12.366;2023-07-29T14:05:52;4.60;;;2.20;;
56457;SDS011;42360;42.918;12.366;2023-07-29T14:08:18;4.90;;;2.38;;
56457;SDS011;42360;42.918;12.366;2023-07-29T14:10:43;3.28;;;2.58;;
56457;SDS011;42360;42.918;12.366;2023-07-29T14:13:09;3.25;;;2.38;;
56457;SDS011;42360;42.918;12.366;2023-07-29T14:15:35;3.80;;;2.55;;
56457;SDS011;42360;42.918;12.366;2023-07-29T14:18:01;4.35;;;2.45;;
56457;SDS011;42360;42.918;12.366;2023-07-29T14:20:27;3.90;;;2.58;;
56457;SDS011;42360;42.918;12.366;2023-07-29T14:22:53;4.07;;;2.50;;
56457;SDS011;42360;42.918;12.366;2023-07-29T14:25:18;2.70;;;2.40;;
56457;SDS011;42360;42.918;12.366;2023-07-29T14:27:44;4.30;;;2.40;;
56457;SDS011;42360;42.918;12.366;2023-07-29T14:30:09;3.22;;;2.60;;
56457;SDS011;42360;42.918;12.366;2023-07-29T14:32:35;2.70;;;2.50;;
56457;SDS011;42360;42.918;12.366;2023-07-29T14:35:02;3.38;;;2.50;;
56457;SDS011;42360;42.918;12.366;2023-07-29T14:37:31;4.15;;;2.20;;
56457;SDS011;42360;42.918;12.366;2023-07-29T14:39:57;3.53;;;2.00;;
56457;SDS011;42360;42.918;12.366;2023-07-29T14:42:23;4.50;;;2.80;;
56457;SDS011;42360;42.918;12.366;2023-07-29T14:44:49;3.10;;;2.45;;
56457;SDS011;42360;42.918;12.366;2023-07-29T14:47:14;2.97;;;2.70;;
56457;SDS011;42360;42.918;12.366;2023-07-29T14:49:40;4.43;;;2.65;;
56457;SDS011;42360;42.918;12.366;2023-07-29T14:52:05;5.82;;;2.50;;
56457;SDS011;42360;42.918;12.366;2023-07-29T14:54:31;4.32;;;2.38;;